Time;durP1;ratioP1;P1;durP2;ratioP2;P2;SDS_P1;SDS_P2;PMS_P1;PMS_P2;Temp;Humidity;BMP_temperature;BMP_pressure;BME280_temperature;BME280_humidity;BME280_pressure;Samples;Min_cycle;Max_cycle;Signal;HPM_P1;HPM_P2
2022/07/26 00:02:14;;;;;;;13.52;12.63;;;21.80;99.90;;;;;;5010921;28;20175;-76
2022/07/26 00:04:41;;;;;;;18.95;17.75;;;21.80;99.90;;;;;;5010952;28;20180;-76
2022/07/26 00:07:06;;;;;;;28.45;26.75;;;21.80;99.90;;;;;;5010266;28;20710;-76
2022/07/26 00:09:32;;;;;;;42.42;39.80;;;21.80;99.90;;;;;;5010344;28;20203;-75
2022/07/26 00:11:58;;;;;;;26.50;24.88;;;21.80;99.90;;;;;;5026025;28;20176;-76
2022/07/26 00:14:24;;;;;;;16.27;15.38;;;21.90;99.90;;;;;;5010778;28;20192;-75
2022/07/26 00:16:50;;;;;;;24.25;22.60;;;21.90;99.90;;;;;;5013955;28;20743;-75
2022/07/26 00:19:17;;;;;;;43.83;41.45;;;21.80;99.90;;;;;;5014473;28;20203;-76
2022/07/26 00:21:42;;;;;;;55.92;53.10;;;21.80;99.90;;;;;;5014394;28;20178;-76
2022/07/26 00:24:09;;;;;;;47.60;44.88;;;21.70;99.90;;;;;;5014277;28;20259;-76
2022/07/26 00:26:35;;;;;;;23.35;22.17;;;21.70;99.90;;;;;;5014719;28;20176;-75
2022/07/26 00:29:03;;;;;;;14.75;13.68;;;21.60;99.90;;;;;;5013689;28;20203;-75
2022/07/26 00:31:29;;;;;;;12.55;11.55;;;21.50;99.90;;;;;;5014567;28;20234;-75
2022/07/26 00:33:55;;;;;;;8.60;7.90;;;21.40;99.90;;;;;;5020515;28;20199;-76
2022/07/26 00:36:21;;;;;;;21.90;20.50;;;21.30;99.90;;;;;;5020070;28;20182;-76
2022/07/26 00:38:46;;;;;;;11.90;11.10;;;21.30;99.90;;;;;;5013401;28;20228;-76
2022/07/26 00:41:12;;;;;;;15.02;14.00;;;21.30;99.90;;;;;;5014283;28;20267;-76
2022/07/26 00:43:53;;;;;;;17.42;16.48;;;21.40;99.90;;;;;;5024538;28;20180;-76
2022/07/26 00:46:19;;;;;;;10.07;9.20;;;21.50;99.90;;;;;;5017362;28;20267;-77
2022/07/26 00:48:44;;;;;;;16.83;15.77;;;21.50;99.90;;;;;;5028501;28;20287;-75
2022/07/26 00:51:10;;;;;;;28.33;26.80;;;21.60;99.90;;;;;;5013767;28;20677;-75
2022/07/26 00:53:36;;;;;;;29.77;28.23;;;21.60;99.90;;;;;;5013832;28;20675;-75
2022/07/26 00:56:02;;;;;;;30.35;28.80;;;21.70;99.90;;;;;;5012914;28;20715;-75
2022/07/26 00:58:28;;;;;;;30.75;29.17;;;21.70;99.90;;;;;;5011708;28;20230;-75
2022/07/26 01:00:53;;;;;;;26.00;24.55;;;21.80;99.90;;;;;;5013951;28;20183;-75
2022/07/26 01:03:19;;;;;;;29.77;28.17;;;21.80;99.90;;;;;;5013625;28;20616;-75
2022/07/26 01:05:45;;;;;;;39.65;37.22;;;21.80;99.90;;;;;;5013841;28;20188;-74
2022/07/26 01:08:11;;;;;;;39.70;37.45;;;21.90;99.90;;;;;;5012723;28;20210;-76
2022/07/26 01:10:37;;;;;;;34.28;32.05;;;21.90;99.90;;;;;;5013869;28;20179;-76
2022/07/26 01:13:02;;;;;;;32.05;30.40;;;21.90;99.90;;;;;;5013656;28;20179;-75
2022/07/26 01:15:28;;;;;;;31.48;29.67;;;21.90;99.90;;;;;;5013090;28;20566;-75
2022/07/26 01:17:54;;;;;;;30.25;28.65;;;21.90;99.90;;;;;;5027009;28;20589;-75
2022/07/26 01:20:20;;;;;;;30.02;28.52;;;21.90;99.90;;;;;;5013655;28;20179;-75
2022/07/26 01:22:46;;;;;;;28.50;26.98;;;21.80;99.90;;;;;;5013358;28;20259;-75
2022/07/26 01:25:12;;;;;;;29.50;27.77;;;21.80;99.90;;;;;;5013267;28;20672;-75
2022/07/26 01:27:38;;;;;;;31.15;29.45;;;21.70;99.90;;;;;;5010368;28;20215;-76
2022/07/26 01:30:06;;;;;;;33.22;31.52;;;21.80;99.90;;;;;;5013522;28;20550;-75
2022/07/26 01:32:32;;;;;;;36.22;34.13;;;21.80;99.90;;;;;;5012085;28;20179;-75
2022/07/26 01:34:58;;;;;;;32.42;30.48;;;21.90;99.90;;;;;;5011294;28;20191;-75
2022/07/26 01:37:24;;;;;;;30.75;29.20;;;21.90;99.90;;;;;;5012211;28;20294;-76
2022/07/26 01:39:49;;;;;;;123.47;117.22;;;22.00;99.90;;;;;;5013237;28;20274;-75
2022/07/26 01:42:15;;;;;;;233.25;219.93;;;21.10;99.90;;;;;;5013150;28;20172;-76
2022/07/26 01:44:41;;;;;;;79.72;75.47;;;20.00;99.90;;;;;;5011646;28;20218;-75
2022/07/26 01:47:07;;;;;;;63.00;59.53;;;19.30;99.90;;;;;;5011074;28;20850;-75
2022/07/26 01:49:32;;;;;;;130.50;122.85;;;18.90;99.90;;;;;;5011454;28;20231;-75
2022/07/26 01:51:58;;;;;;;107.57;101.90;;;18.60;99.90;;;;;;5013218;28;20665;-74
2022/07/26 01:54:24;;;;;;;149.50;141.25;;;18.60;99.90;;;;;;5021603;28;20566;-75
2022/07/26 01:56:50;;;;;;;207.57;196.25;;;18.50;99.90;;;;;;5032696;28;20215;-76
2022/07/26 01:59:15;;;;;;;110.68;103.95;;;18.50;99.90;;;;;;5024528;28;20239;-75
2022/07/26 02:01:41;;;;;;;51.05;48.25;;;18.40;99.90;;;;;;5030762;28;20176;-75
2022/07/26 02:04:57;;;;;;;48.90;46.08;;;18.50;99.90;;;;;;5017440;28;20621;-75
2022/07/26 02:06:53;;;;;;;65.75;62.35;;;18.50;99.90;;;;;;5012125;28;20252;-75
2022/07/26 02:09:19;;;;;;;92.70;87.63;;;18.50;99.90;;;;;;5012676;28;20669;-75
2022/07/26 02:11:47;;;;;;;167.80;159.05;;;18.60;99.90;;;;;;5012630;28;20184;-75
2022/07/26 02:14:13;;;;;;;57.30;54.10;;;18.60;99.90;;;;;;5011035;28;20198;-76
2022/07/26 02:16:39;;;;;;;32.60;30.85;;;18.60;99.90;;;;;;5012710;28;20660;-76
2022/07/26 02:19:05;;;;;;;28.48;26.90;;;18.60;99.90;;;;;;5012109;28;20204;-76
2022/07/26 02:21:31;;;;;;;67.50;63.58;;;18.60;99.90;;;;;;5012629;28;20342;-76
2022/07/26 02:23:57;;;;;;;20.08;18.88;;;18.70;99.90;;;;;;5012559;28;20204;-75
2022/07/26 02:26:23;;;;;;;13.13;12.43;;;18.70;99.90;;;;;;5011215;28;20191;-76
2022/07/26 02:28:48;;;;;;;14.35;13.55;;;18.80;99.90;;;;;;5011299;28;20587;-76
2022/07/26 02:31:14;;;;;;;12.85;12.02;;;18.80;99.90;;;;;;5012535;28;20623;-76
2022/07/26 02:33:40;;;;;;;19.52;18.50;;;18.80;99.90;;;;;;5010902;28;20190;-76
2022/07/26 02:36:06;;;;;;;76.07;71.90;;;18.80;99.90;;;;;;5012432;28;20188;-76
2022/07/26 02:38:31;;;;;;;66.75;63.28;;;19.00;99.90;;;;;;5009832;28;20212;-75
2022/07/26 02:40:57;;;;;;;12.15;11.40;;;19.00;99.90;;;;;;5027117;28;20222;-76
2022/07/26 02:43:23;;;;;;;11.82;11.18;;;19.00;99.90;;;;;;5012235;28;20222;-76
2022/07/26 02:45:52;;;;;;;10.82;10.02;;;19.00;99.90;;;;;;5012237;28;20180;-75
2022/07/26 02:48:18;;;;;;;9.98;9.50;;;18.90;99.90;;;;;;5026424;28;20286;-75
2022/07/26 02:50:44;;;;;;;9.73;9.18;;;18.90;99.90;;;;;;5008805;28;20661;-70
2022/07/26 02:53:09;;;;;;;9.10;8.57;;;18.80;99.90;;;;;;5012917;28;20237;-71
2022/07/26 02:55:36;;;;;;;65.18;61.65;;;18.90;99.90;;;;;;5008477;28;20183;-70
2022/07/26 02:58:02;;;;;;;12.75;12.05;;;19.00;99.90;;;;;;5010769;28;20314;-70
2022/07/26 03:00:27;;;;;;;35.88;33.67;;;19.00;99.90;;;;;;5011485;28;20278;-71
2022/07/26 03:02:53;;;;;;;47.75;45.22;;;19.00;99.90;;;;;;5011108;28;20183;-71
2022/07/26 03:05:19;;;;;;;17.00;16.08;;;19.10;99.90;;;;;;5011517;28;20187;-71
2022/07/26 03:07:46;;;;;;;15.20;13.93;;;19.10;99.90;;;;;;5010548;28;20199;-71
2022/07/26 03:10:12;;;;;;;15.85;15.02;;;19.00;99.90;;;;;;5011646;28;20194;-71
2022/07/26 03:12:38;;;;;;;18.63;17.63;;;19.00;99.90;;;;;;5021772;28;20183;-71
2022/07/26 03:15:04;;;;;;;17.58;16.45;;;19.10;99.90;;;;;;5020755;28;20286;-71
2022/07/26 03:17:30;;;;;;;10.68;10.05;;;19.10;99.90;;;;;;5020484;28;20211;-71
2022/07/26 03:19:56;;;;;;;15.90;15.02;;;19.20;99.90;;;;;;5011570;28;20552;-70
2022/07/26 03:22:22;;;;;;;18.50;17.52;;;19.20;99.90;;;;;;5011382;28;20190;-70
2022/07/26 03:24:47;;;;;;;17.55;16.65;;;19.20;99.90;;;;;;5009993;28;20207;-70
2022/07/26 03:27:13;;;;;;;13.07;12.30;;;19.30;99.90;;;;;;5010311;28;20258;-71
2022/07/26 03:29:39;;;;;;;9.80;9.20;;;19.20;99.90;;;;;;5026128;28;20700;-70
2022/07/26 03:32:05;;;;;;;14.70;13.68;;;19.20;99.90;;;;;;5011442;28;20266;-70
2022/07/26 03:34:31;;;;;;;13.52;12.75;;;19.10;99.90;;;;;;5010862;28;20188;-71
2022/07/26 03:36:57;;;;;;;12.18;11.23;;;19.10;99.90;;;;;;5008602;28;20196;-70
2022/07/26 03:39:24;;;;;;;75.85;71.97;;;19.20;99.90;;;;;;5010415;28;20692;-70
2022/07/26 03:41:50;;;;;;;80.82;76.90;;;19.20;99.90;;;;;;5009815;28;20191;-71
2022/07/26 03:44:15;;;;;;;79.07;75.15;;;19.30;99.90;;;;;;5010447;28;20182;-70
2022/07/26 03:46:41;;;;;;;100.85;95.63;;;19.30;99.90;;;;;;5011199;28;20262;-70
2022/07/26 03:49:07;;;;;;;115.03;109.32;;;19.30;99.90;;;;;;5009176;28;20676;-70
2022/07/26 03:51:33;;;;;;;632.50;594.20;;;19.30;99.90;;;;;;5011621;28;20415;-70
2022/07/26 03:53:59;;;;;;;170.40;161.20;;;19.40;99.90;;;;;;5015345;28;20184;-70
2022/07/26 03:56:28;;;;;;;127.20;120.75;;;19.40;99.90;;;;;;5015434;28;20187;-70
2022/07/26 03:58:54;;;;;;;77.57;73.47;;;19.40;99.90;;;;;;5035636;22;20232;-72
2022/07/26 04:01:20;;;;;;;46.92;44.38;;;19.40;99.90;;;;;;5013136;28;20187;-71
2022/07/26 04:03:46;;;;;;;44.67;42.28;;;19.40;99.90;;;;;;5013836;28;20176;-71
2022/07/26 04:06:12;;;;;;;19.95;18.80;;;19.30;99.90;;;;;;5015126;28;20645;-71
2022/07/26 04:08:38;;;;;;;12.55;11.88;;;19.30;99.90;;;;;;5024536;28;20215;-70
2022/07/26 04:11:04;;;;;;;9.77;9.15;;;19.20;99.90;;;;;;5033709;28;20186;-71
2022/07/26 04:13:30;;;;;;;10.00;9.48;;;19.20;99.90;;;;;;5033467;28;20633;-71
2022/07/26 04:15:55;;;;;;;14.63;13.43;;;19.20;99.90;;;;;;5034566;28;20192;-71
2022/07/26 04:18:21;;;;;;;15.52;14.73;;;19.10;99.90;;;;;;5033026;28;20718;-71
2022/07/26 04:20:47;;;;;;;13.27;12.57;;;19.10;99.90;;;;;;5022442;28;20176;-70
2022/07/26 04:23:13;;;;;;;15.75;14.95;;;19.10;99.90;;;;;;5014533;28;20187;-72
2022/07/26 04:25:39;;;;;;;17.40;16.30;;;19.20;99.90;;;;;;5012867;28;20183;-71
2022/07/26 04:28:05;;;;;;;14.60;13.82;;;19.20;99.90;;;;;;5013410;28;20303;-71
2022/07/26 04:30:31;;;;;;;11.88;10.82;;;19.20;99.90;;;;;;5014365;28;20286;-72
2022/07/26 04:32:57;;;;;;;12.25;11.43;;;19.20;99.90;;;;;;5013915;28;20214;-71
2022/07/26 04:35:22;;;;;;;13.57;12.82;;;19.20;99.90;;;;;;5014530;28;20612;-73
2022/07/26 04:37:48;;;;;;;14.00;13.18;;;19.20;99.90;;;;;;5012184;28;20212;-71
2022/07/26 04:40:17;;;;;;;16.90;15.90;;;19.20;99.90;;;;;;5013603;28;20679;-71
2022/07/26 04:42:43;;;;;;;14.98;14.02;;;19.20;99.90;;;;;;5014552;28;20203;-71
2022/07/26 04:45:10;;;;;;;14.05;13.18;;;19.20;99.90;;;;;;5014291;28;20180;-71
2022/07/26 04:47:36;;;;;;;15.30;14.60;;;19.30;99.90;;;;;;5011976;28;20190;-71
2022/07/26 04:50:03;;;;;;;16.27;15.25;;;19.30;99.90;;;;;;5012884;28;20675;-71
2022/07/26 04:52:29;;;;;;;17.95;16.77;;;19.40;99.90;;;;;;5013001;28;20253;-71
2022/07/26 04:54:54;;;;;;;10.65;9.95;;;19.40;99.90;;;;;;5012682;28;20656;-70
2022/07/26 04:57:20;;;;;;;16.17;15.27;;;19.40;99.90;;;;;;5022389;28;20582;-73
2022/07/26 04:59:46;;;;;;;21.90;20.80;;;19.50;99.90;;;;;;5033306;28;20260;-72
2022/07/26 05:02:13;;;;;;;28.07;26.43;;;19.50;99.90;;;;;;5033206;28;20231;-72
2022/07/26 05:04:41;;;;;;;27.90;26.25;;;19.50;99.90;;;;;;5033179;28;20179;-72
2022/07/26 05:07:07;;;;;;;44.90;42.65;;;19.50;99.90;;;;;;5031060;28;20543;-72
2022/07/26 05:09:33;;;;;;;75.85;71.93;;;19.50;99.90;;;;;;5032616;28;20233;-71
2022/07/26 05:11:59;;;;;;;62.33;59.17;;;19.40;99.90;;;;;;5032426;28;20183;-72
2022/07/26 05:14:25;;;;;;;34.55;32.80;;;19.40;99.90;;;;;;5033122;28;20186;-72
2022/07/26 05:16:50;;;;;;;21.33;19.90;;;19.40;99.90;;;;;;5031405;28;20627;-72
2022/07/26 05:19:16;;;;;;;17.92;16.88;;;19.40;99.90;;;;;;5030381;28;20456;-73
2022/07/26 05:21:42;;;;;;;25.85;24.25;;;19.40;99.90;;;;;;5032503;28;20286;-76
2022/07/26 05:24:08;;;;;;;36.60;34.63;;;19.40;99.90;;;;;;5042136;28;20175;-79
2022/07/26 05:26:34;;;;;;;23.55;21.90;;;19.40;99.90;;;;;;5044623;28;20183;-80
2022/07/26 05:28:59;;;;;;;67.20;63.58;;;19.50;99.90;;;;;;5044175;28;20198;-78
2022/07/26 05:31:25;;;;;;;81.28;77.00;;;19.50;99.90;;;;;;5030691;28;20656;-78
2022/07/26 05:33:51;;;;;;;71.80;68.05;;;19.60;99.90;;;;;;5022191;28;20180;-79
2022/07/26 05:36:18;;;;;;;85.18;80.88;;;19.70;99.90;;;;;;5022355;28;20253;-80
2022/07/26 05:38:44;;;;;;;104.18;98.68;;;20.00;99.90;;;;;;5020896;28;20215;-80
2022/07/26 05:41:09;;;;;;;69.20;65.82;;;20.50;99.90;;;;;;5021516;28;20632;-79
2022/07/26 05:43:35;;;;;;;69.28;65.88;;;21.30;99.90;;;;;;5022952;28;20210;-78
2022/07/26 05:46:01;;;;;;;151.55;144.05;;;22.00;99.90;;;;;;5021975;28;20191;-79
2022/07/26 05:48:27;;;;;;;76.80;72.78;;;22.80;99.90;;;;;;5021489;28;20211;-79
2022/07/26 05:50:53;;;;;;;14.32;13.40;;;23.40;99.90;;;;;;5025136;28;20560;-78
2022/07/26 05:53:19;;;;;;;10.77;10.18;;;23.90;99.90;;;;;;5027792;28;20183;-79
2022/07/26 05:55:44;;;;;;;5.78;5.47;;;24.40;99.90;;;;;;5026053;28;20191;-77
2022/07/26 05:58:10;;;;;;;5.65;5.25;;;24.90;99.90;;;;;;5026031;28;20202;-79
2022/07/26 06:00:36;;;;;;;6.22;5.72;;;25.30;99.90;;;;;;5024402;28;20290;-78
2022/07/26 06:03:20;;;;;;;18.10;17.20;;;25.80;99.90;;;;;;5024022;28;20184;-77
2022/07/26 06:05:55;;;;;;;23.83;22.52;;;25.90;99.90;;;;;;5025955;28;20180;-77
2022/07/26 06:08:22;;;;;;;21.23;20.02;;;26.40;99.90;;;;;;5026832;28;20190;-79
2022/07/26 06:10:48;;;;;;;28.25;26.48;;;26.80;99.90;;;;;;5028207;28;20251;-79
2022/07/26 06:13:15;;;;;;;52.22;49.58;;;26.80;99.90;;;;;;5027988;28;20199;-79
2022/07/26 06:15:41;;;;;;;57.78;54.72;;;27.00;99.90;;;;;;5026428;28;20180;-79
2022/07/26 06:18:08;;;;;;;11.32;10.73;;;27.20;99.90;;;;;;5027697;28;20215;-80
2022/07/26 06:20:38;;;;;;;13.77;12.98;;;27.50;99.90;;;;;;5029617;28;20200;-80
2022/07/26 06:23:04;;;;;;;13.40;12.63;;;27.70;99.90;;;;;;5026569;28;20192;-79
2022/07/26 06:25:30;;;;;;;14.40;13.60;;;27.30;99.90;;;;;;5028048;28;20199;-78
2022/07/26 06:27:55;;;;;;;54.80;51.85;;;26.50;99.90;;;;;;5026334;28;20219;-79
2022/07/26 06:30:21;;;;;;;19.40;18.20;;;25.70;99.90;;;;;;5026605;28;20199;-78
2022/07/26 06:32:47;;;;;;;8.43;7.82;;;24.90;99.90;;;;;;5025418;28;20643;-79
2022/07/26 06:35:13;;;;;;;5.50;5.18;;;24.40;99.90;;;;;;5027140;28;20191;-80
2022/07/26 06:37:41;;;;;;;9.88;9.23;;;23.90;99.90;;;;;;5024332;28;20207;-78
2022/07/26 06:40:09;;;;;;;8.98;8.18;;;23.70;99.90;;;;;;5025434;28;20199;-78
2022/07/26 06:42:35;;;;;;;8.75;8.25;;;23.80;99.90;;;;;;5024214;28;20187;-79
2022/07/26 06:45:01;;;;;;;24.58;23.27;;;23.60;99.90;;;;;;5022768;28;20186;-78
2022/07/26 06:47:27;;;;;;;13.55;12.75;;;23.60;99.90;;;;;;5025135;28;20283;-76
2022/07/26 06:49:53;;;;;;;6.90;6.28;;;24.00;99.90;;;;;;5024151;28;20208;-80
2022/07/26 06:52:19;;;;;;;11.10;10.50;;;25.00;99.90;;;;;;5027784;28;20184;-80
2022/07/26 06:54:45;;;;;;;25.58;24.17;;;25.80;99.90;;;;;;5029938;28;20192;-77
2022/07/26 06:57:11;;;;;;;28.55;27.02;;;26.50;99.90;;;;;;5032579;28;20288;-78
2022/07/26 06:59:37;;;;;;;70.22;66.72;;;27.40;99.90;;;;;;5033746;28;20223;-79
2022/07/26 07:02:03;;;;;;;19.45;18.42;;;27.80;99.90;;;;;;5028554;28;20192;-79
2022/07/26 07:04:31;;;;;;;17.58;16.52;;;27.90;99.90;;;;;;5028776;28;20218;-79
2022/07/26 07:07:01;;;;;;;19.15;18.00;;;27.50;99.90;;;;;;5027214;28;20251;-79
2022/07/26 07:09:28;;;;;;;16.17;15.07;;;26.80;99.90;;;;;;5027969;28;20199;-78
2022/07/26 07:11:54;;;;;;;12.60;11.88;;;26.40;99.90;;;;;;5028010;28;20191;-79
2022/07/26 07:14:20;;;;;;;13.25;12.35;;;26.20;99.90;;;;;;5025967;28;20604;-79
2022/07/26 07:16:46;;;;;;;14.32;13.43;;;26.50;99.90;;;;;;5025780;28;20199;-78
2022/07/26 07:19:11;;;;;;;12.05;11.25;;;27.10;99.90;;;;;;5026031;28;20207;-79
2022/07/26 07:21:38;;;;;;;10.70;9.75;;;27.60;99.90;;;;;;5028604;28;20184;-78
2022/07/26 07:24:05;;;;;;;6.20;5.60;;;27.90;99.90;;;;;;5030600;28;20163;-81
2022/07/26 07:26:31;;;;;;;4.25;3.45;;;28.00;99.90;;;;;;5028546;28;20207;-78
2022/07/26 07:28:57;;;;;;;3.95;3.55;;;27.90;99.90;;;;;;5028526;28;20222;-79
2022/07/26 07:31:24;;;;;;;3.70;3.40;;;27.40;99.90;;;;;;5029246;28;20191;-78
2022/07/26 07:33:49;;;;;;;4.68;4.28;;;27.10;99.90;;;;;;5026698;28;20187;-79
2022/07/26 07:36:15;;;;;;;12.93;12.00;;;26.40;99.90;;;;;;5029199;28;20187;-77
2022/07/26 07:38:43;;;;;;;11.23;10.45;;;25.80;99.90;;;;;;5026945;28;20242;-78
2022/07/26 07:41:08;;;;;;;7.50;6.70;;;26.20;99.90;;;;;;5030452;28;20203;-79
2022/07/26 07:43:34;;;;;;;7.95;7.35;;;26.60;99.90;;;;;;5027364;28;20183;-80
2022/07/26 07:46:00;;;;;;;8.15;7.65;;;26.70;99.90;;;;;;5028391;28;20184;-80
2022/07/26 07:48:26;;;;;;;7.65;7.00;;;26.90;99.90;;;;;;5027873;28;20195;-78
2022/07/26 07:50:51;;;;;;;7.63;3.88;;;27.40;99.90;;;;;;5027717;28;20186;-79
2022/07/26 07:53:17;;;;;;;5.43;4.90;;;28.00;99.90;;;;;;5027446;28;20664;-79
2022/07/26 07:55:43;;;;;;;11.50;11.00;;;28.40;99.40;;;;;;5028454;28;20187;-80
2022/07/26 07:58:08;;;;;;;8.25;7.75;;;28.00;99.10;;;;;;5026568;28;20726;-79
2022/07/26 08:00:34;;;;;;;5.50;3.45;;;26.90;98.90;;;;;;5026647;28;20219;-79
2022/07/26 08:03:00;;;;;;;4.47;4.07;;;25.80;99.80;;;;;;5025252;28;20185;-78
2022/07/26 08:05:26;;;;;;;4.90;4.60;;;25.70;99.90;;;;;;5026471;28;20270;-78
2022/07/26 08:07:51;;;;;;;5.30;5.10;;;26.10;99.40;;;;;;5025850;28;20187;-79
2022/07/26 08:10:17;;;;;;;5.55;5.18;;;25.90;99.60;;;;;;5023379;28;20204;-78
2022/07/26 08:12:43;;;;;;;6.00;5.60;;;25.70;99.90;;;;;;5025223;28;20180;-80
2022/07/26 08:15:09;;;;;;;7.65;7.10;;;25.80;99.50;;;;;;5024515;28;20183;-79
2022/07/26 08:17:35;;;;;;;8.80;8.27;;;25.60;99.90;;;;;;5024905;28;20218;-80
2022/07/26 08:20:02;;;;;;;8.48;7.65;;;25.40;99.90;;;;;;5022556;28;20204;-80
2022/07/26 08:22:28;;;;;;;6.25;5.85;;;25.90;99.80;;;;;;5024602;28;20171;-78
2022/07/26 08:24:54;;;;;;;7.05;6.15;;;26.00;98.90;;;;;;5023594;28;20212;-80
2022/07/26 08:27:19;;;;;;;8.98;7.03;;;25.80;98.30;;;;;;5022487;28;20383;-78
2022/07/26 08:29:45;;;;;;;7.57;7.07;;;25.20;99.30;;;;;;5032471;28;20207;-79
2022/07/26 08:32:11;;;;;;;7.03;6.53;;;25.30;99.60;;;;;;5030181;28;20180;-80
2022/07/26 08:34:37;;;;;;;4.38;4.28;;;26.20;98.20;;;;;;5027559;28;20188;-79
2022/07/26 08:37:03;;;;;;;5.18;4.75;;;26.70;97.20;;;;;;5029349;28;20188;-78
2022/07/26 08:39:28;;;;;;;19.45;18.35;;;27.50;96.50;;;;;;5027491;28;20207;-79
2022/07/26 08:41:54;;;;;;;26.58;25.02;;;27.60;95.30;;;;;;5026759;28;20738;-80
2022/07/26 08:44:20;;;;;;;24.42;23.25;;;27.50;95.00;;;;;;5025290;28;20255;-80
2022/07/26 08:46:46;;;;;;;26.48;24.73;;;27.40;95.00;;;;;;5027963;28;20175;-80
2022/07/26 08:49:13;;;;;;;23.02;21.95;;;27.00;94.80;;;;;;5025522;28;20211;-77
2022/07/26 08:51:42;;;;;;;23.30;22.15;;;26.80;94.80;;;;;;5026831;28;20175;-80
2022/07/26 08:54:12;;;;;;;28.10;26.70;;;26.80;94.60;;;;;;5027673;28;20191;-79
2022/07/26 08:56:58;;;;;;;24.50;23.05;;;27.00;94.00;;;;;;5025996;28;20202;-78
2022/07/26 08:59:24;;;;;;;18.30;17.13;;;26.60;93.40;;;;;;5028946;28;20218;-77
2022/07/26 09:02:01;;;;;;;24.70;23.20;;;26.90;94.80;;;;;;5030273;28;20203;-77
2022/07/26 09:04:37;;;;;;;22.30;21.00;;;27.80;93.50;;;;;;5032738;28;20180;-78
2022/07/26 09:07:10;;;;;;;5.65;5.35;;;28.90;92.40;;;;;;5038662;28;20271;-78
2022/07/26 09:09:56;;;;;;;6.57;6.00;;;28.70;90.10;;;;;;5034286;28;20605;-79
2022/07/26 09:12:23;;;;;;;5.47;5.18;;;27.90;91.50;;;;;;5031322;28;20187;-79
2022/07/26 09:14:49;;;;;;;4.72;4.32;;;27.90;90.40;;;;;;5031896;28;20202;-80
2022/07/26 09:17:17;;;;;;;5.97;5.68;;;27.60;90.50;;;;;;5028421;28;20208;-79
2022/07/26 09:19:43;;;;;;;7.55;7.05;;;27.70;90.80;;;;;;5029943;28;20588;-80
2022/07/26 09:22:13;;;;;;;3.60;3.40;;;28.50;90.10;;;;;;5028671;28;20183;-79
2022/07/26 09:24:47;;;;;;;4.30;3.58;;;28.70;84.50;;;;;;5027434;28;20179;-80
2022/07/26 09:27:15;;;;;;;4.72;4.32;;;27.60;87.00;;;;;;5028768;28;20649;-80
2022/07/26 09:29:52;;;;;;;5.45;5.10;;;27.00;89.00;;;;;;5028782;28;20199;-78
2022/07/26 09:32:21;;;;;;;7.63;4.88;;;26.90;88.90;;;;;;5027764;28;20671;-80
2022/07/26 09:34:49;;;;;;;6.60;5.05;;;27.40;87.50;;;;;;5030220;28;20251;-79
2022/07/26 09:37:16;;;;;;;6.88;5.47;;;27.80;87.60;;;;;;5034589;28;20211;-79
2022/07/26 09:39:58;;;;;;;6.10;5.65;;;27.50;88.00;;;;;;5034386;28;20208;-79
2022/07/26 09:42:26;;;;;;;6.70;6.15;;;27.50;87.10;;;;;;5030276;28;20233;-80
2022/07/26 09:44:53;;;;;;;4.65;4.40;;;27.40;87.10;;;;;;5028941;28;20182;-80
2022/07/26 09:47:19;;;;;;;3.65;3.45;;;27.90;86.00;;;;;;5028222;28;20207;-79
2022/07/26 09:49:45;;;;;;;7.13;4.25;;;27.60;84.80;;;;;;5028071;28;20199;-79
2022/07/26 09:52:19;;;;;;;5.85;5.45;;;26.80;87.10;;;;;;5027921;28;20194;-78
2022/07/26 09:54:48;;;;;;;8.88;8.13;;;26.10;88.30;;;;;;5026968;28;20234;-80
2022/07/26 09:57:20;;;;;;;24.05;22.80;;;25.80;90.10;;;;;;5027957;28;20214;-78
2022/07/26 09:59:46;;;;;;;20.90;19.90;;;25.80;90.20;;;;;;5022689;28;20710;-80
2022/07/26 10:02:12;;;;;;;8.73;8.20;;;26.50;88.10;;;;;;5014971;28;20668;-80
2022/07/26 10:04:42;;;;;;;4.38;4.18;;;27.70;85.80;;;;;;5013589;28;20180;-80
2022/07/26 10:07:09;;;;;;;6.47;3.65;;;28.40;83.90;;;;;;5012584;28;20658;-80
2022/07/26 10:10:00;;;;;;;6.05;5.63;;;28.40;84.10;;;;;;5012991;28;20605;-80
2022/07/26 10:12:30;;;;;;;7.07;6.60;;;28.70;80.30;;;;;;5008062;28;20653;-80
2022/07/26 10:14:56;;;;;;;5.55;5.35;;;28.60;80.60;;;;;;5012537;28;20198;-80
2022/07/26 10:17:28;;;;;;;7.47;7.05;;;28.70;82.50;;;;;;5012005;28;20575;-80
2022/07/26 10:19:55;;;;;;;7.15;6.72;;;28.20;79.40;;;;;;5012543;28;20196;-79
2022/07/26 10:22:24;;;;;;;5.90;5.50;;;28.20;80.80;;;;;;5013666;28;20176;-80
2022/07/26 10:24:51;;;;;;;8.88;8.15;;;28.60;78.10;;;;;;5012814;28;20179;-80
2022/07/26 10:27:37;;;;;;;4.78;4.57;;;29.40;77.60;;;;;;5011833;28;20262;-79
2022/07/26 10:30:18;;;;;;;3.80;3.60;;;29.10;77.80;;;;;;5017821;28;20555;-79
2022/07/26 10:32:50;;;;;;;4.80;4.60;;;29.10;74.30;;;;;;5013237;28;20195;-80
2022/07/26 10:35:39;;;;;;;3.10;3.00;;;29.10;76.10;;;;;;5014116;28;20623;-80
2022/07/26 10:38:25;;;;;;;3.15;2.95;;;29.40;75.50;;;;;;5011521;28;20268;-80
2022/07/26 10:41:03;;;;;;;3.08;2.95;;;29.60;75.10;;;;;;5013364;28;20188;-79
2022/07/26 10:43:29;;;;;;;5.22;4.03;;;30.00;74.20;;;;;;5017544;28;20270;-80
2022/07/26 10:46:15;;;;;;;8.55;7.85;;;29.70;73.10;;;;;;5012406;28;20218;-80
2022/07/26 10:48:58;;;;;;;6.85;6.45;;;29.50;72.90;;;;;;5005583;28;20247;-80
2022/07/26 10:51:26;;;;;;;5.53;5.32;;;29.90;72.20;;;;;;5012607;28;20183;-80
2022/07/26 10:54:03;;;;;;;5.32;4.82;;;30.00;73.80;;;;;;5011826;28;20178;-80
2022/07/26 10:56:29;;;;;;;6.68;6.15;;;30.00;73.40;;;;;;5013649;28;20560;-80
2022/07/26 10:58:55;;;;;;;9.68;9.25;;;29.90;72.10;;;;;;5012762;28;20579;-79
2022/07/26 11:01:21;;;;;;;7.43;6.78;;;29.70;72.90;;;;;;5012064;28;20180;-80
2022/07/26 11:03:47;;;;;;;7.80;7.22;;;29.90;72.90;;;;;;5013498;28;20183;-80
2022/07/26 11:06:16;;;;;;;6.28;5.88;;;29.90;72.90;;;;;;5019624;28;20246;-80
2022/07/26 11:08:44;;;;;;;7.60;7.20;;;29.90;73.30;;;;;;5021766;28;20562;-81
2022/07/26 11:11:10;;;;;;;8.23;7.85;;;29.90;71.80;;;;;;5023388;28;20194;-80
2022/07/26 11:13:36;;;;;;;8.00;7.50;;;30.10;72.80;;;;;;5029968;28;20203;-80
2022/07/26 11:16:04;;;;;;;5.93;5.63;;;30.20;70.10;;;;;;5030248;28;20253;-80
2022/07/26 11:18:35;;;;;;;6.03;5.72;;;30.00;72.40;;;;;;5021279;28;20699;-81
2022/07/26 11:21:12;;;;;;;5.18;4.88;;;30.50;71.30;;;;;;5016199;28;20241;-81
2022/07/26 11:23:43;;;;;;;6.38;6.00;;;30.40;70.40;;;;;;5011935;28;20183;-81
2022/07/26 11:26:17;;;;;;;7.35;6.95;;;30.70;69.30;;;;;;5012936;28;20278;-81
2022/07/26 11:28:52;;;;;;;7.07;6.53;;;30.70;68.70;;;;;;5012161;28;20211;-81
2022/07/26 11:31:20;;;;;;;6.13;5.82;;;31.10;68.30;;;;;;5013172;28;20277;-81
2022/07/26 11:33:49;;;;;;;6.55;5.97;;;30.80;66.10;;;;;;5011670;28;20614;-81
2022/07/26 11:36:17;;;;;;;7.93;7.53;;;30.80;65.70;;;;;;5013966;28;20184;-79
2022/07/26 11:38:52;;;;;;;8.35;7.68;;;30.90;65.60;;;;;;5014532;28;20269;-80
2022/07/26 11:41:23;;;;;;;5.78;5.47;;;30.80;65.30;;;;;;5013318;28;20648;-80
2022/07/26 11:43:50;;;;;;;6.93;6.32;;;30.70;67.00;;;;;;5012057;28;20666;-80
2022/07/26 11:46:17;;;;;;;5.97;5.68;;;30.70;66.30;;;;;;5013180;28;20183;-80
2022/07/26 11:48:47;;;;;;;6.93;6.53;;;30.90;64.40;;;;;;5012164;28;20230;-79
2022/07/26 11:51:15;;;;;;;5.57;5.20;;;30.90;64.30;;;;;;5012323;28;20180;-80
2022/07/26 11:53:42;;;;;;;8.93;5.15;;;30.80;63.60;;;;;;5018131;28;20326;-79
2022/07/26 11:56:20;;;;;;;5.80;5.40;;;31.10;64.20;;;;;;5016497;28;20613;-80
2022/07/26 11:58:48;;;;;;;6.10;5.80;;;30.90;64.20;;;;;;5012265;28;20270;-80
2022/07/26 12:01:16;;;;;;;6.78;6.13;;;31.00;63.00;;;;;;5012899;28;20206;-80
2022/07/26 12:03:45;;;;;;;11.73;11.23;;;31.50;63.60;;;;;;5012918;28;20554;-80
2022/07/26 12:06:17;;;;;;;23.88;22.73;;;31.70;60.70;;;;;;5011623;28;20182;-80
2022/07/26 12:08:53;;;;;;;10.02;9.43;;;30.90;59.90;;;;;;5012343;28;20560;-80
2022/07/26 12:11:20;;;;;;;3.65;3.55;;;30.00;61.90;;;;;;5014082;28;20678;-80
2022/07/26 12:14:00;;;;;;;4.40;4.10;;;30.20;61.00;;;;;;5015627;28;20222;-80
2022/07/26 12:16:45;;;;;;;11.38;10.52;;;30.80;60.70;;;;;;5015154;28;20594;-80
2022/07/26 12:19:17;;;;;;;9.60;9.10;;;30.80;58.90;;;;;;5016938;28;20253;-80
2022/07/26 12:21:45;;;;;;;9.98;9.20;;;30.70;59.00;;;;;;5016035;28;20192;-80
2022/07/26 12:24:32;;;;;;;5.47;5.28;;;30.10;59.70;;;;;;5016125;28;20188;-79
2022/07/26 12:27:25;;;;;;;4.90;4.60;;;29.80;60.20;;;;;;5013711;28;20480;-79
2022/07/26 12:29:53;;;;;;;8.02;7.68;;;30.20;59.30;;;;;;5012112;28;20262;-79
2022/07/26 12:32:29;;;;;;;9.98;8.80;;;30.60;57.90;;;;;;5019994;28;20172;-79
2022/07/26 12:35:07;;;;;;;19.55;18.55;;;30.90;58.40;;;;;;5017892;28;20187;-79
2022/07/26 12:37:56;;;;;;;45.85;43.65;;;31.20;57.10;;;;;;5015158;28;20215;-79